Time;durP1;ratioP1;P1;durP2;ratioP2;P2;SDS_P1;SDS_P2;PMS_P1;PMS_P2;Temp;Humidity;BMP_temperature;BMP_pressure;BME280_temperature;BME280_humidity;BME280_pressure;Samples;Min_cycle;Max_cycle;Signal;HPM_P1;HPM_P2
2023/12/26 00:02:08;;;;;;;0.40;0.40;;;13.00;91.90;;;;;;5044664;28;20029;-64
2023/12/26 00:04:34;;;;;;;0.35;0.30;;;13.00;91.90;;;;;;5045268;28;20383;-63
2023/12/26 00:07:00;;;;;;;0.35;0.35;;;13.00;91.90;;;;;;5048590;28;20574;-63
2023/12/26 00:09:26;;;;;;;0.55;0.32;;;12.90;91.80;;;;;;5049248;28;20108;-63
2023/12/26 00:11:51;;;;;;;0.45;0.30;;;13.00;91.80;;;;;;5049126;28;20072;-64
2023/12/26 00:14:17;;;;;;;0.10;0.10;;;13.00;91.80;;;;;;5049927;28;20029;-64
2023/12/26 00:16:43;;;;;;;1.00;0.13;;;13.00;91.80;;;;;;5051948;28;20025;-63
2023/12/26 00:19:09;;;;;;;0.10;0.10;;;13.00;92.00;;;;;;5046141;28;20029;-63
2023/12/26 00:21:37;;;;;;;1.63;0.20;;;12.90;91.70;;;;;;5049596;28;20040;-64
2023/12/26 00:24:03;;;;;;;0.30;0.15;;;12.90;91.70;;;;;;5052164;28;20424;-64
2023/12/26 00:26:29;;;;;;;0.30;0.30;;;12.90;91.70;;;;;;5053194;28;20036;-64
2023/12/26 00:28:54;;;;;;;0.20;0.20;;;12.90;91.60;;;;;;5051884;28;20029;-64
2023/12/26 00:31:20;;;;;;;0.20;0.20;;;12.90;91.60;;;;;;5055978;28;20380;-64
2023/12/26 00:33:48;;;;;;;0.35;0.30;;;12.80;91.50;;;;;;5045869;28;20029;-63
2023/12/26 00:36:17;;;;;;;0.30;0.30;;;12.80;91.50;;;;;;5053777;28;20111;-63
2023/12/26 00:38:47;;;;;;;0.28;0.20;;;12.80;91.50;;;;;;5056579;28;20115;-63
2023/12/26 00:41:14;;;;;;;0.85;0.57;;;12.80;91.50;;;;;;5058321;28;20158;-64
2023/12/26 00:43:39;;;;;;;0.35;0.35;;;12.80;91.50;;;;;;5054120;28;20028;-64
2023/12/26 00:46:06;;;;;;;0.30;0.22;;;12.80;91.50;;;;;;5060239;28;20400;-64
2023/12/26 00:48:32;;;;;;;0.20;0.20;;;12.80;91.40;;;;;;5051248;28;20034;-63
2023/12/26 00:50:58;;;;;;;3.35;0.30;;;12.80;91.40;;;;;;5051289;28;20029;-63
2023/12/26 00:53:24;;;;;;;1.08;0.20;;;12.80;91.40;;;;;;5051816;28;20044;-63
2023/12/26 00:55:50;;;;;;;1.02;0.20;;;12.80;91.40;;;;;;5062109;28;20123;-64
2023/12/26 00:58:16;;;;;;;0.57;0.38;;;12.80;91.30;;;;;;5050794;28;20040;-64
2023/12/26 01:00:42;;;;;;;0.43;0.38;;;12.80;91.30;;;;;;5052511;28;20369;-63
2023/12/26 01:03:09;;;;;;;0.43;0.20;;;12.80;91.30;;;;;;5052304;28;20020;-63
2023/12/26 01:05:35;;;;;;;0.43;0.30;;;12.80;91.30;;;;;;5054566;28;20036;-63
2023/12/26 01:08:00;;;;;;;1.73;0.40;;;12.80;91.30;;;;;;5054730;28;20024;-63
2023/12/26 01:10:26;;;;;;;0.43;0.28;;;12.80;91.30;;;;;;5050184;28;20035;-63
2023/12/26 01:12:52;;;;;;;0.63;0.20;;;12.70;91.30;;;;;;5049998;28;20037;-63
2023/12/26 01:15:18;;;;;;;0.20;0.20;;;12.70;91.30;;;;;;5051512;28;20029;-63
2023/12/26 01:17:44;;;;;;;0.15;0.15;;;12.70;91.40;;;;;;5049856;28;20115;-63
2023/12/26 01:20:10;;;;;;;0.70;0.22;;;12.70;91.40;;;;;;5055118;28;20546;-63
2023/12/26 01:22:36;;;;;;;3.72;0.75;;;12.70;91.30;;;;;;5049261;28;20033;-63
2023/12/26 01:25:04;;;;;;;0.73;0.65;;;12.70;91.30;;;;;;5048632;28;20427;-63
2023/12/26 01:27:30;;;;;;;0.32;0.30;;;12.70;91.30;;;;;;5048557;28;20423;-62
2023/12/26 01:29:56;;;;;;;0.50;0.50;;;12.70;91.30;;;;;;5046764;28;20033;-63
2023/12/26 01:32:21;;;;;;;4.22;0.93;;;12.70;91.30;;;;;;5049461;28;20032;-63
2023/12/26 01:34:47;;;;;;;0.55;0.50;;;12.70;91.20;;;;;;5051521;28;20055;-63
2023/12/26 01:37:14;;;;;;;0.70;0.60;;;12.70;91.20;;;;;;5060207;28;20051;-63
2023/12/26 01:39:40;;;;;;;1.65;0.63;;;12.80;91.20;;;;;;5053130;28;20091;-63
2023/12/26 01:42:06;;;;;;;0.77;0.47;;;12.80;91.20;;;;;;5027477;28;20029;-63
2023/12/26 01:44:32;;;;;;;3.67;0.43;;;12.80;91.10;;;;;;5060008;28;20426;-63
2023/12/26 01:46:58;;;;;;;0.40;0.40;;;12.80;91.20;;;;;;5050987;28;20021;-63
2023/12/26 01:49:24;;;;;;;0.30;0.30;;;12.80;91.20;;;;;;5055157;28;20031;-63
2023/12/26 01:51:52;;;;;;;0.38;0.38;;;12.80;91.10;;;;;;5052381;28;20698;-63
2023/12/26 01:54:18;;;;;;;0.47;0.40;;;12.80;91.10;;;;;;5049173;28;20124;-63
2023/12/26 01:56:47;;;;;;;0.30;0.30;;;12.70;91.20;;;;;;5054694;28;20450;-63
2023/12/26 01:59:14;;;;;;;0.40;0.40;;;12.70;91.20;;;;;;5054205;28;20415;-63
2023/12/26 02:01:40;;;;;;;0.32;0.32;;;12.70;91.10;;;;;;5054676;28;20488;-63
2023/12/26 02:04:05;;;;;;;0.82;0.52;;;12.70;91.20;;;;;;5056992;28;20029;-63
2023/12/26 02:06:33;;;;;;;1.20;0.63;;;12.70;91.20;;;;;;5047910;28;20091;-64
2023/12/26 02:08:59;;;;;;;1.10;0.70;;;12.70;91.20;;;;;;5044719;28;20021;-63
2023/12/26 02:11:25;;;;;;;0.20;0.20;;;12.70;91.30;;;;;;5057989;28;20032;-63
2023/12/26 02:13:51;;;;;;;1.75;0.63;;;12.70;91.30;;;;;;5049792;28;20033;-63
2023/12/26 02:16:21;;;;;;;0.52;0.52;;;12.70;91.30;;;;;;5050330;28;20035;-63
2023/12/26 02:18:47;;;;;;;1.60;0.50;;;12.70;91.30;;;;;;5053826;28;20060;-63
2023/12/26 02:21:14;;;;;;;0.45;0.45;;;12.70;91.30;;;;;;5057996;28;20075;-64
2023/12/26 02:23:41;;;;;;;1.65;0.38;;;12.70;91.30;;;;;;5058432;28;20083;-64
2023/12/26 02:26:07;;;;;;;0.30;0.30;;;12.70;91.30;;;;;;5048784;28;20025;-63
2023/12/26 02:28:34;;;;;;;0.20;0.17;;;12.70;91.20;;;;;;5052045;28;20027;-64
2023/12/26 02:31:04;;;;;;;1.85;0.38;;;12.80;91.30;;;;;;5050891;28;20028;-62
2023/12/26 02:33:30;;;;;;;0.40;0.40;;;12.80;91.30;;;;;;5047773;28;20043;-62
2023/12/26 02:35:58;;;;;;;0.50;0.50;;;12.70;91.20;;;;;;5046340;28;20036;-63
2023/12/26 02:38:24;;;;;;;0.30;0.30;;;12.80;91.30;;;;;;5054526;28;20087;-63
2023/12/26 02:40:51;;;;;;;0.43;0.40;;;12.80;91.20;;;;;;5053572;28;20439;-63
2023/12/26 02:43:22;;;;;;;0.20;0.20;;;12.80;91.20;;;;;;5045602;28;20052;-64
2023/12/26 02:45:49;;;;;;;0.20;0.20;;;12.90;91.20;;;;;;5046605;28;20040;-64
2023/12/26 02:48:16;;;;;;;0.85;0.47;;;12.80;90.90;;;;;;5046940;28;20385;-63
2023/12/26 02:50:42;;;;;;;1.30;0.50;;;12.70;90.30;;;;;;5043591;28;20030;-63
2023/12/26 02:53:08;;;;;;;0.43;0.43;;;12.60;90.30;;;;;;5046695;28;20036;-63
2023/12/26 02:55:34;;;;;;;0.38;0.38;;;12.40;90.20;;;;;;5059287;28;20036;-64
2023/12/26 02:57:59;;;;;;;1.85;0.20;;;12.40;90.20;;;;;;5051471;28;20036;-63
2023/12/26 03:00:25;;;;;;;0.22;0.22;;;12.30;90.10;;;;;;5056715;28;20121;-63
2023/12/26 03:02:51;;;;;;;2.72;0.32;;;12.30;90.20;;;;;;5050718;28;20064;-63
2023/12/26 03:05:16;;;;;;;0.55;0.20;;;12.20;90.10;;;;;;5052380;28;20391;-63
2023/12/26 03:07:42;;;;;;;0.45;0.20;;;12.20;90.00;;;;;;5052005;28;20029;-63
2023/12/26 03:10:09;;;;;;;1.40;0.28;;;12.20;90.00;;;;;;5049720;28;20393;-64
2023/12/26 03:12:36;;;;;;;0.25;0.20;;;12.20;90.00;;;;;;5048418;28;20033;-63
2023/12/26 03:15:02;;;;;;;0.95;0.40;;;12.20;90.00;;;;;;5047939;28;20032;-63
2023/12/26 03:17:28;;;;;;;0.20;0.20;;;12.20;90.00;;;;;;5048782;28;20064;-64
2023/12/26 03:19:54;;;;;;;0.47;0.40;;;12.30;90.00;;;;;;5054231;28;20488;-63
2023/12/26 03:22:20;;;;;;;1.67;0.55;;;12.30;90.00;;;;;;5056833;28;20024;-64
2023/12/26 03:24:46;;;;;;;4.18;0.40;;;12.30;90.10;;;;;;5056211;28;20052;-64
2023/12/26 03:27:11;;;;;;;0.63;0.40;;;12.30;90.10;;;;;;5053465;28;20451;-63
2023/12/26 03:29:38;;;;;;;0.70;0.50;;;12.40;90.20;;;;;;5056646;28;20518;-63
2023/12/26 03:32:04;;;;;;;0.52;0.52;;;12.50;90.20;;;;;;5052902;28;20048;-64
2023/12/26 03:34:30;;;;;;;2.50;1.10;;;12.50;90.40;;;;;;5039809;28;20036;-63
2023/12/26 03:36:56;;;;;;;1.15;0.95;;;12.60;90.20;;;;;;5044615;28;20369;-64
2023/12/26 03:39:21;;;;;;;2.45;0.50;;;12.60;90.20;;;;;;5046466;28;20042;-64
2023/12/26 03:41:48;;;;;;;1.02;0.63;;;12.60;90.30;;;;;;5046958;28;20029;-64
2023/12/26 03:44:15;;;;;;;0.98;0.80;;;12.60;90.10;;;;;;5045929;28;20113;-64
2023/12/26 03:46:42;;;;;;;3.60;0.88;;;12.60;90.10;;;;;;5048175;28;20056;-64
2023/12/26 03:49:07;;;;;;;1.08;0.65;;;12.60;90.00;;;;;;5052796;28;20060;-63
2023/12/26 03:51:33;;;;;;;4.38;1.08;;;12.60;89.80;;;;;;5049663;28;20057;-64
2023/12/26 03:53:59;;;;;;;2.10;0.70;;;12.60;89.80;;;;;;5053918;28;20111;-64
2023/12/26 03:56:38;;;;;;;2.40;0.60;;;12.60;89.60;;;;;;5052854;28;20033;-64
2023/12/26 03:59:04;;;;;;;1.35;0.43;;;12.60;89.50;;;;;;5052846;28;20086;-64
2023/12/26 04:01:30;;;;;;;0.93;0.82;;;12.60;89.30;;;;;;5056439;28;20033;-64
2023/12/26 04:03:56;;;;;;;3.00;0.60;;;12.60;89.70;;;;;;5057998;28;20036;-64
2023/12/26 04:06:22;;;;;;;2.38;0.73;;;12.60;88.80;;;;;;5051471;28;20949;-63
2023/12/26 04:08:48;;;;;;;0.57;0.40;;;12.60;88.40;;;;;;5054846;28;20112;-64
2023/12/26 04:11:13;;;;;;;1.05;0.35;;;12.50;88.30;;;;;;5054374;28;20067;-64
2023/12/26 04:13:39;;;;;;;0.98;0.50;;;12.50;88.40;;;;;;5054677;28;20485;-64
2023/12/26 04:16:06;;;;;;;2.08;0.60;;;12.50;88.20;;;;;;5052035;28;20563;-64
2023/12/26 04:18:33;;;;;;;2.10;1.05;;;12.50;88.10;;;;;;5033381;28;20064;-64
2023/12/26 04:20:59;;;;;;;2.70;0.55;;;12.50;87.80;;;;;;5044317;28;20030;-64
2023/12/26 04:23:24;;;;;;;1.48;0.55;;;12.50;87.80;;;;;;5051600;28;20025;-64
2023/12/26 04:25:50;;;;;;;2.00;0.75;;;12.50;87.50;;;;;;5047414;28;20033;-64
2023/12/26 04:28:16;;;;;;;2.55;1.00;;;12.40;87.40;;;;;;5052591;28;20032;-64
2023/12/26 04:30:44;;;;;;;1.33;0.50;;;12.40;86.70;;;;;;5057030;28;20037;-62
2023/12/26 04:33:10;;;;;;;1.45;0.70;;;12.30;86.10;;;;;;5036584;28;20547;-63
2023/12/26 04:35:36;;;;;;;0.38;0.20;;;12.30;86.10;;;;;;5051330;28;20133;-63
2023/12/26 04:38:03;;;;;;;4.40;0.40;;;12.20;86.10;;;;;;5047729;28;20388;-63
2023/12/26 04:40:29;;;;;;;1.40;0.70;;;12.20;86.20;;;;;;5085662;28;20040;-63
2023/12/26 04:42:54;;;;;;;1.85;1.23;;;12.10;86.10;;;;;;5040935;28;20024;-63
2023/12/26 04:45:20;;;;;;;1.60;0.75;;;12.10;86.20;;;;;;5049101;28;20100;-63
2023/12/26 04:47:46;;;;;;;4.13;0.50;;;12.10;86.00;;;;;;5055631;28;20118;-62
2023/12/26 04:50:12;;;;;;;1.55;0.40;;;12.00;86.00;;;;;;5047515;28;20041;-62
2023/12/26 04:52:37;;;;;;;1.77;0.40;;;12.00;85.90;;;;;;5054180;28;20025;-63
2023/12/26 04:55:03;;;;;;;0.60;0.52;;;12.00;85.90;;;;;;5050248;28;20104;-62
2023/12/26 04:57:30;;;;;;;1.17;0.40;;;12.00;85.10;;;;;;5046297;28;20036;-62
2023/12/26 04:59:55;;;;;;;1.30;0.52;;;11.90;84.70;;;;;;5053478;28;20025;-62
2023/12/26 05:02:21;;;;;;;0.55;0.40;;;11.80;84.60;;;;;;5049592;28;20037;-62
2023/12/26 05:04:47;;;;;;;2.40;0.45;;;11.80;84.90;;;;;;5049098;28;20021;-62
2023/12/26 05:07:13;;;;;;;2.15;0.60;;;11.80;84.80;;;;;;5043581;28;20472;-63
2023/12/26 05:09:39;;;;;;;1.48;0.63;;;11.70;84.40;;;;;;5050527;28;20507;-63
2023/12/26 05:12:06;;;;;;;0.70;0.22;;;11.70;84.40;;;;;;5043289;28;20092;-63
2023/12/26 05:14:32;;;;;;;0.20;0.20;;;11.70;84.70;;;;;;5044132;28;20172;-63
2023/12/26 05:16:58;;;;;;;1.67;0.50;;;11.60;84.80;;;;;;5053409;28;20124;-63
2023/12/26 05:19:24;;;;;;;12.77;1.25;;;11.60;84.90;;;;;;5044336;28;20048;-63
2023/12/26 05:21:51;;;;;;;0.50;0.50;;;11.70;85.10;;;;;;5056845;28;20075;-62
2023/12/26 05:24:16;;;;;;;0.52;0.50;;;11.60;84.50;;;;;;5055313;28;20072;-63
2023/12/26 05:26:43;;;;;;;4.13;0.60;;;11.60;84.60;;;;;;5051317;28;20111;-63
2023/12/26 05:29:10;;;;;;;0.93;0.65;;;11.60;84.80;;;;;;5051705;28;20495;-63
2023/12/26 05:31:37;;;;;;;0.88;0.65;;;11.60;84.70;;;;;;5049701;28;20025;-63
2023/12/26 05:34:07;;;;;;;0.68;0.50;;;11.60;84.70;;;;;;5044230;28;20024;-63
2023/12/26 05:36:33;;;;;;;2.88;0.70;;;11.60;84.80;;;;;;5047647;28;20053;-63
2023/12/26 05:38:59;;;;;;;0.75;0.43;;;11.60;84.70;;;;;;5053191;28;20122;-62
2023/12/26 05:41:25;;;;;;;6.97;0.80;;;11.60;84.40;;;;;;5052334;28;20037;-62
2023/12/26 05:43:51;;;;;;;0.82;0.40;;;11.60;84.30;;;;;;5051891;28;20443;-62
2023/12/26 05:46:18;;;;;;;4.20;1.15;;;11.60;84.30;;;;;;5055562;28;20036;-62
2023/12/26 05:48:44;;;;;;;1.35;0.57;;;11.60;84.10;;;;;;5055390;28;20029;-62
2023/12/26 05:51:10;;;;;;;2.45;0.45;;;11.50;84.00;;;;;;5033591;28;20385;-62
2023/12/26 05:53:35;;;;;;;3.15;0.95;;;11.50;84.00;;;;;;5049580;28;20033;-62
2023/12/26 05:56:01;;;;;;;1.02;0.60;;;11.50;84.00;;;;;;5052394;28;20491;-63
2023/12/26 05:58:27;;;;;;;0.98;0.73;;;11.50;83.90;;;;;;5035605;28;20928;-62
2023/12/26 06:00:53;;;;;;;0.60;0.47;;;11.40;83.70;;;;;;5051630;28;20032;-63
2023/12/26 06:03:19;;;;;;;0.65;0.52;;;11.40;83.40;;;;;;5056344;28;20021;-62
2023/12/26 06:05:46;;;;;;;6.55;1.10;;;11.30;83.40;;;;;;5050255;28;20120;-62
2023/12/26 06:08:12;;;;;;;2.22;0.60;;;11.30;82.90;;;;;;5049887;28;20362;-63
2023/12/26 06:10:37;;;;;;;2.53;0.70;;;11.30;82.90;;;;;;5052338;28;20035;-63
2023/12/26 06:13:03;;;;;;;1.80;0.88;;;11.30;82.70;;;;;;5052990;28;20487;-63
2023/12/26 06:15:30;;;;;;;0.70;0.40;;;11.20;82.60;;;;;;5050658;28;20071;-64
2023/12/26 06:17:58;;;;;;;1.17;0.90;;;11.20;82.30;;;;;;5053756;28;20045;-63
2023/12/26 06:20:26;;;;;;;1.75;0.47;;;11.20;82.30;;;;;;5051962;28;20132;-63
2023/12/26 06:22:52;;;;;;;1.60;0.90;;;11.10;81.80;;;;;;5047478;28;20043;-63
2023/12/26 06:25:18;;;;;;;1.40;0.60;;;11.10;82.00;;;;;;5052868;28;20064;-63
2023/12/26 06:27:44;;;;;;;3.40;0.80;;;11.10;82.10;;;;;;5043574;28;20030;-62
2023/12/26 06:30:10;;;;;;;3.13;1.20;;;11.10;81.40;;;;;;5049992;28;20087;-63
2023/12/26 06:32:36;;;;;;;2.38;0.98;;;11.00;81.00;;;;;;5042123;28;20404;-63
2023/12/26 06:35:02;;;;;;;1.30;0.40;;;11.00;81.30;;;;;;5043824;28;20112;-63
2023/12/26 06:37:27;;;;;;;3.15;1.02;;;11.00;81.00;;;;;;5048238;28;20430;-62
2023/12/26 06:39:53;;;;;;;2.38;0.75;;;10.90;80.60;;;;;;5055480;28;20036;-62
2023/12/26 06:42:19;;;;;;;2.30;0.80;;;10.90;80.60;;;;;;5049012;28;20025;-64
2023/12/26 06:44:44;;;;;;;2.28;0.70;;;10.90;80.80;;;;;;5053480;28;20033;-64
2023/12/26 06:47:12;;;;;;;0.65;0.55;;;10.90;81.00;;;;;;5045588;28;20036;-64
2023/12/26 06:49:43;;;;;;;3.95;1.40;;;10.90;80.90;;;;;;5056965;28;20031;-64
2023/12/26 06:52:08;;;;;;;4.55;0.40;;;10.80;80.90;;;;;;5043098;28;20057;-64
2023/12/26 06:54:34;;;;;;;4.00;1.33;;;10.80;81.00;;;;;;5050184;28;20021;-64
2023/12/26 06:57:06;;;;;;;0.60;0.60;;;10.80;80.80;;;;;;5042449;28;20090;-64
2023/12/26 06:59:32;;;;;;;;;;;10.80;80.40;;;;;;5053197;28;20441;-64
2023/12/26 07:01:58;;;;;;;2.40;0.85;;;10.70;80.40;;;;;;5055365;28;19912;-64
2023/12/26 07:04:24;;;;;;;4.10;1.23;;;10.70;80.70;;;;;;5048638;28;20041;-63
2023/12/26 07:06:50;;;;;;;6.05;1.48;;;10.70;80.50;;;;;;5049908;28;20021;-63
2023/12/26 07:09:15;;;;;;;1.70;0.98;;;10.60;80.40;;;;;;5059195;28;20808;-63
2023/12/26 07:11:41;;;;;;;1.08;0.40;;;10.60;80.70;;;;;;5053445;28;20116;-63
2023/12/26 07:14:07;;;;;;;2.08;0.60;;;10.60;81.20;;;;;;5047413;28;20056;-63
2023/12/26 07:16:35;;;;;;;4.00;1.23;;;10.60;80.30;;;;;;5058089;28;20024;-63
2023/12/26 07:19:01;;;;;;;3.08;0.90;;;10.60;80.20;;;;;;5051385;28;20465;-63
2023/12/26 07:21:27;;;;;;;7.47;0.60;;;10.60;80.00;;;;;;5058602;28;20553;-63
2023/12/26 07:23:53;;;;;;;0.38;0.38;;;10.60;79.90;;;;;;5042295;28;20251;-63
2023/12/26 07:26:22;;;;;;;2.33;0.68;;;10.60;79.90;;;;;;5053944;28;20134;-63
2023/12/26 07:28:47;;;;;;;1.27;0.68;;;10.50;79.90;;;;;;5049311;28;20021;-63
2023/12/26 07:31:28;;;;;;;4.47;1.25;;;10.50;79.90;;;;;;5050586;28;20488;-63
2023/12/26 07:33:54;;;;;;;1.60;0.52;;;10.60;80.00;;;;;;5053366;28;20033;-63
2023/12/26 07:36:20;;;;;;;0.60;0.60;;;10.60;79.50;;;;;;5059992;28;20033;-62
2023/12/26 07:38:46;;;;;;;1.40;0.80;;;10.50;79.20;;;;;;5051702;28;20624;-62
2023/12/26 07:41:12;;;;;;;2.15;0.90;;;10.50;79.20;;;;;;5056307;28;20066;-62
2023/12/26 07:43:37;;;;;;;4.30;1.17;;;10.50;79.00;;;;;;5052918;28;20021;-63
2023/12/26 07:46:04;;;;;;;1.20;0.75;;;10.50;79.00;;;;;;5053498;28;20032;-66
2023/12/26 07:48:30;;;;;;;10.52;0.95;;;10.50;79.20;;;;;;5047472;28;20377;-64
2023/12/26 07:50:56;;;;;;;0.47;0.40;;;10.40;79.20;;;;;;5046727;28;20033;-63
2023/12/26 07:53:22;;;;;;;4.07;0.65;;;10.50;79.30;;;;;;5044163;28;20036;-63
2023/12/26 07:55:48;;;;;;;2.88;0.80;;;10.40;79.10;;;;;;5054547;28;20028;-63
2023/12/26 07:58:14;;;;;;;3.63;1.25;;;10.40;79.30;;;;;;5040132;28;20572;-65
2023/12/26 08:00:40;;;;;;;4.97;0.82;;;10.40;79.20;;;;;;5048884;28;20036;-64
2023/12/26 08:03:05;;;;;;;1.55;0.93;;;10.40;79.10;;;;;;5049330;28;20025;-65
2023/12/26 08:05:31;;;;;;;16.38;1.02;;;10.40;79.20;;;;;;5047509;28;20029;-66
2023/12/26 08:07:57;;;;;;;2.05;1.42;;;10.30;79.10;;;;;;5047358;28;20129;-67
2023/12/26 08:10:25;;;;;;;3.05;0.98;;;10.30;79.10;;;;;;5051790;28;20082;-66
2023/12/26 08:12:51;;;;;;;3.60;0.85;;;10.40;79.00;;;;;;5048920;28;20388;-66
2023/12/26 08:15:17;;;;;;;2.08;0.90;;;10.40;78.80;;;;;;5048580;28;20094;-66
2023/12/26 08:17:43;;;;;;;1.42;0.85;;;10.40;78.40;;;;;;5051348;28;20492;-66
2023/12/26 08:20:09;;;;;;;10.38;1.48;;;10.40;78.40;;;;;;5047811;28;20054;-64
2023/12/26 08:22:35;;;;;;;2.50;0.75;;;10.40;78.10;;;;;;5044652;28;20451;-64
2023/12/26 08:25:01;;;;;;;2.03;0.77;;;10.50;78.30;;;;;;5052319;28;20072;-64
2023/12/26 08:27:27;;;;;;;3.25;1.15;;;10.50;78.00;;;;;;5050036;28;20124;-65
2023/12/26 08:29:53;;;;;;;3.45;1.25;;;10.60;77.40;;;;;;5049768;28;20456;-64
2023/12/26 08:32:19;;;;;;;1.85;1.33;;;10.60;77.30;;;;;;5042067;28;20136;-63
2023/12/26 08:34:44;;;;;;;2.60;1.25;;;10.60;77.20;;;;;;5047705;28;20435;-64
2023/12/26 08:37:12;;;;;;;1.70;0.95;;;10.60;76.00;;;;;;5046589;28;20124;-63
2023/12/26 08:39:37;;;;;;;2.03;0.57;;;10.60;76.40;;;;;;5053484;28;20036;-63
2023/12/26 08:42:04;;;;;;;2.38;0.73;;;10.60;76.00;;;;;;5037954;28;20489;-64
2023/12/26 08:44:29;;;;;;;3.05;1.23;;;10.60;75.90;;;;;;5052834;28;20119;-64
2023/12/26 08:46:55;;;;;;;2.47;0.52;;;10.70;75.90;;;;;;5055830;28;20502;-63
2023/12/26 08:49:21;;;;;;;1.33;0.65;;;10.70;76.10;;;;;;5049281;28;20029;-65
2023/12/26 08:51:46;;;;;;;1.90;1.05;;;10.60;75.50;;;;;;5042943;28;20041;-64
2023/12/26 08:54:12;;;;;;;6.43;0.88;;;10.70;75.70;;;;;;5049952;28;20740;-64
2023/12/26 08:56:41;;;;;;;1.63;0.63;;;10.70;75.70;;;;;;5044987;28;20486;-64
2023/12/26 08:59:07;;;;;;;1.08;0.82;;;10.70;75.70;;;;;;5053678;28;20028;-64
2023/12/26 09:01:35;;;;;;;1.95;1.20;;;10.80;76.00;;;;;;5034395;28;20022;-64
2023/12/26 09:04:04;;;;;;;0.43;0.43;;;10.80;76.00;;;;;;5064130;28;20037;-67
2023/12/26 09:06:30;;;;;;;1.15;0.65;;;10.80;76.20;;;;;;5042018;28;20127;-67
2023/12/26 09:08:55;;;;;;;0.93;0.40;;;10.80;76.50;;;;;;5053998;28;20471;-66
2023/12/26 09:11:21;;;;;;;3.22;0.75;;;10.80;76.60;;;;;;5041892;28;20025;-68
2023/12/26 09:13:47;;;;;;;1.40;0.90;;;10.80;76.70;;;;;;5048312;28;20032;-65
2023/12/26 09:16:12;;;;;;;5.63;0.52;;;10.80;76.90;;;;;;5044553;28;20070;-67
2023/12/26 09:18:39;;;;;;;3.80;0.88;;;10.80;77.20;;;;;;5021132;28;20029;-67
2023/12/26 09:21:05;;;;;;;2.20;0.82;;;10.80;77.50;;;;;;5037294;28;20112;-67
2023/12/26 09:23:31;;;;;;;1.88;0.50;;;10.70;77.70;;;;;;5056537;28;20482;-67
2023/12/26 09:25:57;;;;;;;1.90;0.85;;;10.70;77.90;;;;;;5053167;28;20032;-67
2023/12/26 09:28:23;;;;;;;2.35;1.05;;;10.70;78.20;;;;;;5038689;28;20040;-67
2023/12/26 09:30:48;;;;;;;1.85;0.65;;;10.70;78.30;;;;;;5051420;28;20075;-65
2023/12/26 09:33:14;;;;;;;1.10;0.60;;;10.70;78.50;;;;;;5049438;28;20484;-66
2023/12/26 09:35:40;;;;;;;3.47;1.10;;;10.70;78.60;;;;;;5039229;28;20052;-65
2023/12/26 09:38:06;;;;;;;7.75;0.85;;;10.70;78.70;;;;;;5023280;28;20120;-65
2023/12/26 09:40:31;;;;;;;1.52;1.02;;;10.70;78.80;;;;;;5045174;28;20416;-66
2023/12/26 09:43:02;;;;;;;2.88;0.93;;;10.80;78.90;;;;;;5045185;28;20025;-66
2023/12/26 09:45:28;;;;;;;8.80;1.75;;;10.90;79.00;;;;;;5053189;28;20025;-65
2023/12/26 09:47:55;;;;;;;1.00;0.68;;;10.90;78.90;;;;;;5058430;28;20026;-66
2023/12/26 09:50:21;;;;;;;3.70;1.05;;;10.90;78.70;;;;;;5055425;28;20133;-66
2023/12/26 09:52:53;;;;;;;1.98;1.10;;;10.90;78.60;;;;;;5050800;28;20552;-64
2023/12/26 09:55:20;;;;;;;3.58;0.80;;;11.00;78.20;;;;;;5055350;28;20383;-65
2023/12/26 09:57:46;;;;;;;2.05;0.75;;;11.00;78.60;;;;;;5049345;28;20135;-64
2023/12/26 10:00:12;;;;;;;1.90;0.70;;;10.90;77.70;;;;;;5059761;28;20116;-64
2023/12/26 10:02:38;;;;;;;3.78;1.25;;;11.00;77.80;;;;;;5055077;28;20032;-64
2023/12/26 10:05:05;;;;;;;3.08;0.85;;;11.10;77.80;;;;;;5055918;28;20033;-64
2023/12/26 10:07:31;;;;;;;1.23;0.90;;;11.10;77.50;;;;;;5048750;28;20071;-64
2023/12/26 10:09:57;;;;;;;2.13;0.68;;;11.10;77.30;;;;;;5047596;28;20506;-64
2023/12/26 10:12:27;;;;;;;1.67;0.90;;;11.10;77.30;;;;;;5052465;28;20048;-64
2023/12/26 10:15:02;;;;;;;3.03;1.50;;;11.20;77.20;;;;;;5056599;28;20506;-65
2023/12/26 10:17:28;;;;;;;4.40;1.50;;;11.20;77.30;;;;;;5051490;28;20036;-65
2023/12/26 10:19:58;;;;;;;3.65;1.40;;;11.20;76.80;;;;;;5057074;28;20033;-64
2023/12/26 10:22:24;;;;;;;8.50;1.48;;;11.30;76.90;;;;;;5052451;28;20395;-64
2023/12/26 10:24:50;;;;;;;4.00;1.02;;;11.30;76.30;;;;;;5056682;28;20072;-63
2023/12/26 10:27:16;;;;;;;3.35;0.90;;;11.40;76.20;;;;;;5050213;28;20064;-64
2023/12/26 10:29:53;;;;;;;3.10;1.10;;;11.70;75.90;;;;;;5052652;28;20037;-64
2023/12/26 10:32:19;;;;;;;5.60;1.45;;;11.90;74.80;;;;;;5046476;28;20419;-64
2023/12/26 10:34:45;;;;;;;2.13;0.65;;;12.20;74.10;;;;;;5052217;28;20055;-63
2023/12/26 10:37:11;;;;;;;4.63;1.63;;;12.50;72.90;;;;;;5052149;28;20041;-64
2023/12/26 10:39:37;;;;;;;0.88;0.73;;;12.60;71.80;;;;;;5061663;28;20045;-63
2023/12/26 10:42:03;;;;;;;1.38;0.63;;;12.60;71.80;;;;;;5047915;28;20029;-64
2023/12/26 10:45:04;;;;;;;6.43;1.42;;;12.70;72.00;;;;;;5051221;28;20098;-64
2023/12/26 10:47:31;;;;;;;4.00;0.88;;;12.80;71.70;;;;;;5057377;28;20036;-63
2023/12/26 10:49:59;;;;;;;2.20;1.08;;;13.00;71.50;;;;;;5038808;28;20114;-64
2023/12/26 10:52:29;;;;;;;3.88;1.45;;;13.30;70.20;;;;;;5048564;28;20033;-64
2023/12/26 10:55:00;;;;;;;13.70;1.83;;;13.40;69.80;;;;;;5055021;28;20102;-64
2023/12/26 10:57:29;;;;;;;3.85;1.25;;;13.90;69.20;;;;;;5053205;28;20055;-65
2023/12/26 13:52:16;;;;;;;9.10;1.50;;;11.60;71.20;;;;;;5048348;28;20028;-64
2023/12/26 13:55:19;;;;;;;2.17;0.50;;;11.50;69.90;;;;;;5053486;28;20036;-63
2023/12/26 13:58:22;;;;;;;4.57;0.93;;;11.50;70.20;;;;;;5045824;28;20032;-63
2023/12/26 14:01:25;;;;;;;2.53;0.98;;;11.60;70.50;;;;;;5034968;28;20496;-63
2023/12/26 14:04:29;;;;;;;2.70;1.13;;;11.60;70.00;;;;;;5038579;28;20037;-64
2023/12/26 14:07:32;;;;;;;5.97;0.60;;;11.60;69.80;;;;;;5041345;28;20040;-63
2023/12/26 14:10:35;;;;;;;1.73;1.02;;;11.60;70.00;;;;;;5039093;28;20037;-63
2023/12/26 14:13:38;;;;;;;1.35;0.50;;;11.60;69.60;;;;;;5038811;28;20160;-63
2023/12/26 14:16:41;;;;;;;1.90;1.15;;;11.50;69.70;;;;;;5041122;28;20115;-63
2023/12/26 14:19:25;;;;;;;;;;;11.50;69.70;;;;;;5040042;28;20036;-63
2023/12/26 14:22:28;;;;;;;3.35;0.90;;;11.50;70.00;;;;;;5042162;28;19950;-63
2023/12/26 14:25:31;;;;;;;2.95;0.70;;;11.50;69.90;;;;;;5036725;28;20040;-63
2023/12/26 14:28:34;;;;;;;2.67;1.00;;;11.50;69.70;;;;;;5043800;28;20022;-64
2023/12/26 14:31:20;;;;;;;;;;;11.40;69.70;;;;;;5044065;28;20053;-64
2023/12/26 14:34:23;;;;;;;2.17;0.50;;;11.40;69.90;;;;;;5041176;28;19990;-64
2023/12/26 14:37:26;;;;;;;1.95;0.90;;;11.40;70.00;;;;;;5044880;28;20083;-64
2023/12/26 14:40:29;;;;;;;0.22;0.22;;;11.40;69.80;;;;;;5046597;28;20044;-64
2023/12/26 14:43:32;;;;;;;1.45;0.63;;;11.40;69.90;;;;;;5046695;28;20095;-64
2023/12/26 14:46:36;;;;;;;3.08;0.68;;;11.40;70.10;;;;;;5046810;28;20018;-64
2023/12/26 14:49:39;;;;;;;2.88;0.70;;;11.40;70.20;;;;;;5042729;28;20025;-64
2023/12/26 14:52:05;;;;;;;13.40;5.55;;;11.40;70.10;;;;;;5048065;28;20378;-64
2023/12/26 14:54:30;;;;;;;5.60;1.52;;;11.40;70.20;;;;;;5040480;28;20033;-64
2023/12/26 14:56:56;;;;;;;2.75;0.70;;;11.40;70.40;;;;;;5018139;28;20399;-64
2023/12/26 14:59:21;;;;;;;1.42;0.65;;;11.40;70.10;;;;;;5047362;28;20036;-65
2023/12/26 15:01:47;;;;;;;2.20;1.23;;;11.50;70.00;;;;;;5049143;28;20039;-65
2023/12/26 15:04:14;;;;;;;1.25;0.80;;;11.40;69.30;;;;;;5043355;28;20112;-67
2023/12/26 15:06:39;;;;;;;1.65;1.05;;;11.40;69.90;;;;;;5038849;28;20123;-66
2023/12/26 15:09:06;;;;;;;3.22;1.10;;;11.40;69.70;;;;;;5041079;28;20451;-65
2023/12/26 15:11:31;;;;;;;0.38;0.38;;;11.30;69.60;;;;;;5043927;28;20036;-65
2023/12/26 15:13:57;;;;;;;5.43;1.45;;;11.30;69.90;;;;;;5041166;28;20028;-66
2023/12/26 15:16:23;;;;;;;2.38;0.60;;;11.30;70.60;;;;;;5043734;28;20030;-65
2023/12/26 15:18:48;;;;;;;3.03;0.90;;;11.30;70.10;;;;;;5057158;28;20032;-66
2023/12/26 15:21:14;;;;;;;0.50;0.50;;;11.30;70.20;;;;;;5052955;28;20067;-66
2023/12/26 15:23:40;;;;;;;1.75;0.52;;;11.30;70.00;;;;;;5049865;28;20426;-66
2023/12/26 15:26:13;;;;;;;2.13;0.70;;;11.30;70.20;;;;;;5048682;28;20100;-65
2023/12/26 15:28:41;;;;;;;3.08;0.90;;;11.30;70.40;;;;;;5036928;28;20022;-65
2023/12/26 15:31:15;;;;;;;3.70;0.88;;;11.20;70.40;;;;;;5044936;28;20033;-65
2023/12/26 15:33:42;;;;;;;1.00;0.50;;;11.30;70.50;;;;;;5045398;28;20074;-65
2023/12/26 15:36:29;;;;;;;3.92;0.80;;;11.20;70.60;;;;;;5049005;28;20028;-61
2023/12/26 15:38:55;;;;;;;0.50;0.50;;;11.20;70.60;;;;;;5041267;28;20048;-63
2023/12/26 15:41:23;;;;;;;2.28;0.90;;;11.20;70.40;;;;;;5050246;28;20484;-63
2023/12/26 15:43:50;;;;;;;0.98;0.50;;;11.20;70.40;;;;;;5045146;28;20041;-63
2023/12/26 15:46:17;;;;;;;2.28;1.02;;;11.20;70.60;;;;;;5050110;28;20528;-64
2023/12/26 15:48:43;;;;;;;3.65;1.20;;;11.20;70.40;;;;;;5047657;28;20057;-63